createdAt,value
2022-08-21T00:00:45.772Z,27.41
2022-08-21T00:03:14.477Z,27.39
2022-08-21T00:05:53.584Z,27.38
2022-08-21T00:08:29.598Z,27.34
2022-08-21T00:11:06.759Z,27.35
2022-08-21T00:13:36.091Z,27.23
2022-08-21T00:16:05.196Z,27.22
2022-08-21T00:18:36.084Z,27.19
2022-08-21T00:21:07.425Z,27.19
2022-08-21T00:23:38.504Z,27.17
2022-08-21T00:26:15.893Z,27.18
2022-08-21T00:28:43.846Z,27.17
2022-08-21T00:31:19.590Z,27.15
2022-08-21T00:33:47.454Z,27.16
2022-08-21T00:36:15.445Z,27.17
2022-08-21T00:38:43.250Z,27.19
2022-08-21T00:41:36.407Z,27.14
2022-08-21T00:44:01.035Z,27.15
2022-08-21T00:46:30.395Z,27.16
2022-08-21T00:48:59.112Z,27.09
2022-08-21T00:51:38.274Z,27.05
2022-08-21T00:54:10.755Z,27.07
2022-08-21T00:56:54.187Z,27.02
2022-08-21T00:59:25.385Z,27.02
2022-08-21T01:01:53.564Z,27.06
2022-08-21T01:04:22.745Z,27.11
2022-08-21T01:06:51.146Z,27.11
2022-08-21T01:09:21.538Z,27.09
2022-08-21T01:11:49.532Z,27.09
2022-08-21T01:14:21.105Z,27.08
2022-08-21T01:16:51.826Z,27.03
2022-08-21T01:19:23.027Z,26.97
2022-08-21T01:21:58.236Z,26.88
2022-08-21T01:24:27.797Z,26.91
2022-08-21T01:26:57.113Z,26.79
2022-08-21T01:29:49.259Z,26.81
2022-08-21T01:32:19.695Z,26.75
2022-08-21T01:34:49.955Z,26.77
2022-08-21T01:37:18.681Z,26.82
2022-08-21T01:39:47.855Z,26.84
2022-08-21T01:42:16.049Z,26.89
2022-08-21T01:44:44.252Z,26.85
2022-08-21T01:47:15.374Z,26.84
2022-08-21T01:49:46.925Z,26.81
2022-08-21T01:52:14.754Z,26.81
2022-08-21T01:54:55.493Z,26.76
2022-08-21T01:57:26.341Z,26.67
2022-08-21T01:59:54.619Z,26.66
2022-08-21T02:02:29.187Z,26.65
2022-08-21T02:04:57.816Z,26.66
2022-08-21T02:07:25.923Z,26.63
2022-08-21T02:09:53.793Z,26.63
2022-08-21T02:12:22.024Z,26.60
2022-08-21T02:14:49.589Z,26.56
2022-08-21T02:17:17.798Z,26.57
2022-08-21T02:19:45.801Z,26.54
2022-08-21T02:22:13.945Z,26.51
2022-08-21T02:24:53.863Z,26.48
2022-08-21T02:27:27.642Z,26.47
2022-08-21T02:30:01.713Z,26.41
2022-08-21T02:32:29.250Z,26.41
2022-08-21T02:34:57.601Z,26.44
2022-08-21T02:37:36.284Z,26.42
2022-08-21T02:40:05.518Z,26.39
2022-08-21T02:42:40.994Z,26.37
2022-08-21T02:45:10.216Z,26.34
2022-08-21T02:47:38.353Z,26.41
2022-08-21T02:50:07.439Z,26.45
2022-08-21T02:52:40.118Z,26.45
2022-08-21T02:55:10.079Z,26.45
2022-08-21T02:57:38.005Z,26.46
2022-08-21T03:00:14.875Z,26.45
2022-08-21T03:02:43.045Z,26.43
2022-08-21T03:05:12.033Z,26.33
2022-08-21T03:07:40.878Z,26.34
2022-08-21T03:10:10.905Z,26.33
2022-08-21T03:12:39.706Z,26.32
2022-08-21T03:15:11.558Z,26.30
2022-08-21T03:17:39.439Z,26.26
2022-08-21T03:20:09.147Z,26.22
2022-08-21T03:22:37.093Z,26.24
2022-08-21T03:25:06.675Z,26.22
2022-08-21T03:27:35.857Z,26.22
2022-08-21T03:30:08.676Z,26.22
2022-08-21T03:32:37.475Z,26.25
2022-08-21T03:35:06.740Z,26.25
2022-08-21T03:37:35.318Z,26.30
2022-08-21T03:40:08.068Z,26.31
2022-08-21T03:42:36.394Z,26.30
2022-08-21T03:45:06.147Z,26.32
2022-08-21T03:47:33.870Z,26.29
2022-08-21T03:50:01.772Z,26.24
2022-08-21T03:52:29.718Z,26.21
2022-08-21T03:55:01.215Z,26.23
2022-08-21T03:57:29.096Z,26.18
2022-08-21T03:59:57.019Z,26.19
2022-08-21T04:02:28.871Z,26.21
2022-08-21T04:04:56.450Z,26.19
2022-08-21T04:07:24.463Z,26.15
2022-08-21T04:09:51.881Z,26.07
2022-08-21T04:12:20.660Z,26.09
2022-08-21T04:14:48.640Z,25.98
2022-08-21T04:17:19.457Z,26.00
2022-08-21T04:19:50.528Z,25.99
2022-08-21T04:22:24.035Z,25.97
2022-08-21T04:24:54.459Z,26.00
2022-08-21T04:27:22.352Z,26.03
2022-08-21T04:29:50.067Z,26.04
2022-08-21T04:32:27.718Z,26.11
2022-08-21T04:35:10.793Z,26.16
2022-08-21T04:37:41.991Z,26.06
2022-08-21T04:40:12.555Z,26.12
2022-08-21T04:43:03.595Z,26.09
2022-08-21T04:45:33.078Z,26.08
2022-08-21T04:48:05.120Z,26.08
2022-08-21T04:51:12.551Z,25.94
2022-08-21T04:53:46.300Z,25.90
2022-08-21T04:56:29.847Z,25.90
2022-08-21T04:59:01.384Z,25.91
2022-08-21T05:01:31.492Z,25.93
2022-08-21T05:04:02.545Z,25.92
2022-08-21T05:06:34.982Z,25.93
2022-08-21T05:09:07.251Z,25.99
2022-08-21T05:11:38.703Z,25.97
2022-08-21T05:14:06.955Z,25.95
2022-08-21T05:16:41.334Z,25.99
2022-08-21T05:19:10.136Z,25.96
2022-08-21T05:21:43.898Z,26.00
2022-08-21T05:24:12.699Z,25.95
2022-08-21T05:26:45.513Z,25.92
2022-08-21T05:29:16.523Z,25.96
2022-08-21T05:31:45.592Z,26.03
2022-08-21T05:34:25.058Z,26.04
2022-08-21T05:36:53.440Z,26.05
2022-08-21T05:39:21.417Z,26.07
2022-08-21T05:41:49.756Z,26.10
2022-08-21T05:44:17.338Z,26.06
2022-08-21T05:46:46.762Z,25.97
2022-08-21T05:49:16.154Z,25.95
2022-08-21T05:51:43.988Z,25.90
2022-08-21T05:54:15.451Z,25.86
2022-08-21T05:56:52.563Z,25.85
2022-08-21T05:59:23.465Z,25.87
2022-08-21T06:01:54.154Z,25.87
2022-08-21T06:04:21.997Z,25.86
2022-08-21T06:06:52.887Z,25.90
2022-08-21T06:09:21.505Z,25.95
2022-08-21T06:11:49.463Z,26.05
2022-08-21T06:14:17.845Z,26.05
2022-08-21T06:16:45.294Z,25.95
2022-08-21T06:19:21.330Z,25.89
2022-08-21T06:21:48.993Z,25.92
2022-08-21T06:24:20.020Z,25.98
2022-08-21T06:26:47.610Z,25.94
2022-08-21T06:29:23.601Z,26.06
2022-08-21T06:31:57.842Z,26.19
2022-08-21T06:34:26.455Z,26.33
2022-08-21T06:36:54.438Z,26.49
2022-08-21T06:39:30.635Z,26.52
2022-08-21T06:42:04.138Z,26.63
2022-08-21T06:44:37.661Z,26.70
2022-08-21T06:47:05.127Z,26.78
2022-08-21T06:49:32.639Z,26.90
2022-08-21T06:52:01.967Z,27.01
2022-08-21T06:54:29.706Z,27.07
2022-08-21T06:56:57.419Z,27.00
2022-08-21T06:59:26.380Z,27.01
2022-08-21T07:01:53.806Z,27.12
2022-08-21T07:04:21.788Z,27.16
2022-08-21T07:06:49.131Z,27.26
2022-08-21T07:09:22.671Z,27.31
2022-08-21T07:11:56.171Z,27.35
2022-08-21T07:14:24.821Z,27.39
2022-08-21T07:16:52.756Z,27.47
2022-08-21T07:19:21.498Z,27.49
2022-08-21T07:21:49.632Z,27.58
2022-08-21T07:24:17.102Z,27.65
2022-08-21T07:26:44.822Z,27.72
2022-08-21T07:29:12.354Z,27.78
2022-08-21T07:31:43.360Z,27.86
2022-08-21T07:34:10.961Z,27.98
2022-08-21T07:36:39.604Z,28.05
2022-08-21T07:39:09.348Z,28.13
2022-08-21T07:41:37.119Z,28.25
2022-08-21T07:44:12.581Z,28.25
2022-08-21T07:46:40.865Z,28.37
2022-08-21T07:49:11.373Z,28.40
2022-08-21T07:51:39.139Z,28.47
2022-08-21T07:54:06.865Z,28.58
2022-08-21T07:56:35.527Z,28.71
2022-08-21T07:59:04.142Z,28.71
2022-08-21T08:01:31.958Z,28.85
2022-08-21T08:04:00.083Z,29.00
2022-08-21T08:06:27.567Z,29.12
2022-08-21T08:08:55.775Z,29.21
2022-08-21T08:11:26.254Z,29.26
2022-08-21T08:13:54.417Z,29.29
2022-08-21T08:16:22.022Z,29.36
2022-08-21T08:18:49.623Z,29.52
2022-08-21T08:21:17.476Z,29.61
2022-08-21T08:23:46.596Z,29.52
2022-08-21T08:26:14.429Z,29.40
2022-08-21T08:28:42.147Z,29.42
2022-08-21T08:31:10.030Z,29.43
2022-08-21T08:33:37.561Z,29.40
2022-08-21T08:36:07.076Z,29.42
2022-08-21T08:38:36.443Z,29.42
2022-08-21T08:41:18.616Z,29.57
2022-08-21T08:43:54.825Z,29.66
2022-08-21T08:46:39.939Z,29.76
2022-08-21T08:49:21.805Z,29.88
2022-08-21T08:52:15.448Z,29.93
2022-08-21T08:54:51.789Z,30.04
2022-08-21T08:57:24.376Z,30.08
2022-08-21T08:59:57.382Z,30.18
2022-08-21T09:02:25.688Z,30.19
2022-08-21T09:04:55.652Z,30.21
2022-08-21T09:11:43.632Z,30.31
2022-08-21T09:14:51.851Z,30.44
2022-08-21T09:18:12.212Z,30.46
2022-08-21T09:20:56.173Z,30.53
2022-08-21T09:23:45.697Z,30.52
2022-08-21T09:26:28.549Z,30.61
2022-08-21T09:29:02.231Z,30.64
2022-08-21T09:31:34.449Z,30.61
2022-08-21T09:34:10.873Z,30.66
2022-08-21T09:36:52.181Z,30.46
2022-08-21T09:39:25.920Z,30.48
2022-08-21T09:42:02.349Z,30.53
2022-08-21T09:44:42.269Z,30.47
2022-08-21T09:47:14.218Z,30.42
2022-08-21T09:49:44.301Z,30.45
2022-08-21T09:52:28.106Z,30.52
2022-08-21T09:54:57.253Z,30.58
2022-08-21T09:57:46.552Z,30.59
2022-08-21T10:03:48.255Z,30.69
2022-08-21T10:06:29.809Z,30.75
2022-08-21T10:09:22.018Z,30.85
2022-08-21T10:12:11.053Z,30.94
2022-08-21T10:15:08.279Z,30.96
2022-08-21T10:17:44.755Z,30.86
2022-08-21T10:20:21.414Z,30.98
2022-08-21T10:23:26.453Z,31.02
2022-08-21T10:26:13.865Z,30.98
2022-08-21T10:28:58.119Z,31.06
2022-08-21T10:31:48.528Z,30.79
2022-08-21T10:34:34.257Z,30.74
2022-08-21T10:37:29.192Z,30.71
2022-08-21T10:40:21.752Z,30.70
2022-08-21T10:43:11.497Z,30.56
2022-08-21T10:46:19.529Z,30.58
2022-08-21T10:48:55.767Z,30.60
2022-08-21T10:51:37.087Z,30.65
2022-08-21T10:54:40.906Z,30.79
2022-08-21T10:57:32.324Z,30.84
2022-08-21T11:00:13.225Z,30.83
2022-08-21T11:02:51.725Z,30.79
2022-08-21T11:05:32.332Z,30.90
2022-08-21T11:08:17.707Z,30.94
2022-08-21T11:11:00.020Z,30.98
2022-08-21T11:13:52.802Z,30.98
2022-08-21T11:16:25.886Z,31.01
2022-08-21T11:18:59.458Z,30.99
2022-08-21T11:22:10.125Z,31.08
2022-08-21T11:25:09.974Z,31.11
2022-08-21T11:27:47.257Z,31.05
2022-08-21T11:30:15.798Z,31.08
2022-08-21T11:33:04.590Z,31.22
2022-08-21T11:35:49.301Z,31.20
2022-08-21T11:38:29.226Z,31.28
2022-08-21T11:41:26.153Z,31.25
2022-08-21T11:44:12.053Z,31.31
2022-08-21T11:47:21.466Z,31.36
2022-08-21T11:50:34.282Z,31.52
2022-08-21T11:53:25.440Z,31.53
2022-08-21T11:56:04.211Z,31.55
2022-08-21T11:58:50.610Z,31.57
2022-08-21T12:01:27.683Z,31.55
2022-08-21T12:04:14.468Z,31.44
2022-08-21T12:06:44.990Z,31.50
2022-08-21T12:09:38.361Z,31.41
2022-08-21T12:12:36.347Z,31.56
2022-08-21T12:15:27.599Z,31.41
2022-08-21T12:18:20.152Z,31.41
2022-08-21T12:21:02.366Z,31.23
2022-08-21T12:23:41.661Z,31.10
2022-08-21T12:26:15.029Z,31.11
2022-08-21T12:28:43.234Z,31.18
2022-08-21T12:31:27.220Z,31.33
2022-08-21T12:34:04.845Z,31.38
2022-08-21T12:36:49.478Z,31.37
2022-08-21T12:39:25.181Z,31.22
2022-08-21T12:42:06.538Z,31.31
2022-08-21T12:44:48.649Z,31.39
2022-08-21T12:47:50.035Z,31.23
2022-08-21T12:51:02.084Z,31.06
2022-08-21T12:53:29.852Z,31.10
2022-08-21T12:56:02.670Z,31.14
2022-08-21T12:58:46.603Z,31.19
2022-08-21T13:01:30.824Z,31.06
2022-08-21T13:04:14.553Z,31.16
2022-08-21T13:07:01.929Z,31.29
2022-08-21T13:09:36.781Z,31.32
2022-08-21T13:12:32.603Z,31.36
2022-08-21T13:15:33.752Z,31.41
2022-08-21T13:18:26.113Z,31.36
2022-08-21T13:21:06.347Z,31.51
2022-08-21T13:23:45.076Z,31.56
2022-08-21T13:26:24.206Z,31.68
2022-08-21T13:29:15.114Z,31.54
2022-08-21T13:32:11.007Z,31.52
2022-08-21T13:34:42.684Z,31.56
2022-08-21T13:37:23.445Z,31.45
2022-08-21T13:39:54.684Z,31.48
2022-08-21T13:42:30.779Z,31.38
2022-08-21T13:45:03.765Z,31.29
2022-08-21T13:47:32.538Z,31.24
2022-08-21T13:50:01.292Z,31.15
2022-08-21T13:52:29.023Z,31.11
2022-08-21T13:54:58.794Z,31.02
2022-08-21T13:57:36.322Z,31.05
2022-08-21T14:00:29.155Z,31.06
2022-08-21T14:03:10.511Z,31.06
2022-08-21T14:06:05.391Z,31.10
2022-08-21T14:08:37.136Z,31.18
2022-08-21T14:11:07.753Z,31.06
2022-08-21T14:13:40.711Z,31.18
2022-08-21T14:16:29.073Z,31.17
2022-08-21T14:19:04.171Z,31.24
2022-08-21T14:21:34.762Z,31.25
2022-08-21T14:24:10.580Z,31.29
2022-08-21T14:26:48.807Z,31.37
2022-08-21T14:29:21.086Z,31.29
2022-08-21T14:31:58.486Z,31.41
2022-08-21T14:34:34.100Z,31.35
2022-08-21T14:37:03.487Z,31.32
2022-08-21T14:39:35.018Z,31.45
2022-08-21T14:42:03.852Z,31.65
2022-08-21T14:44:33.260Z,31.78
2022-08-21T14:47:01.248Z,31.58
2022-08-21T14:49:31.243Z,31.39
2022-08-21T14:52:00.683Z,31.37
2022-08-21T14:54:32.262Z,31.23
2022-08-21T14:57:04.057Z,31.07
2022-08-21T14:59:34.158Z,31.00
2022-08-21T15:02:05.586Z,30.91
2022-08-21T15:04:34.667Z,30.88
2022-08-21T15:07:03.189Z,30.88
2022-08-21T15:09:30.898Z,30.84
2022-08-21T15:12:02.308Z,30.75
2022-08-21T15:14:33.728Z,30.58
2022-08-21T15:17:17.329Z,30.43
2022-08-21T15:20:22.506Z,30.40
2022-08-21T15:22:50.622Z,30.33
2022-08-21T15:25:21.367Z,30.26
2022-08-21T15:27:49.708Z,30.19
2022-08-21T15:30:17.978Z,30.01
2022-08-21T15:32:47.202Z,29.92
2022-08-21T15:35:15.990Z,29.88
2022-08-21T15:37:43.978Z,29.85
2022-08-21T15:40:12.865Z,29.81
2022-08-21T15:42:42.360Z,29.74
2022-08-21T15:45:12.569Z,29.72
2022-08-21T15:47:54.161Z,29.76
2022-08-21T15:50:23.238Z,29.80
2022-08-21T15:52:54.649Z,29.80
2022-08-21T15:55:23.192Z,29.71
2022-08-21T15:57:58.227Z,29.64
2022-08-21T16:00:29.438Z,29.61
2022-08-21T16:02:59.966Z,29.48
2022-08-21T16:05:28.437Z,29.45
2022-08-21T16:07:56.272Z,29.30
2022-08-21T16:10:36.488Z,29.02
2022-08-21T16:13:18.770Z,28.67
2022-08-21T16:15:49.032Z,28.30
2022-08-21T16:18:18.312Z,28.01
2022-08-21T16:20:46.540Z,26.85
2022-08-21T16:23:14.460Z,26.38
2022-08-21T16:25:43.042Z,26.51
2022-08-21T16:28:14.497Z,26.63
2022-08-21T16:30:46.056Z,26.83
2022-08-21T16:33:20.934Z,27.00
2022-08-21T16:35:48.657Z,26.99
2022-08-21T16:38:16.411Z,26.98
2022-08-21T16:40:43.979Z,26.99
2022-08-21T16:43:16.228Z,26.89
2022-08-21T16:45:49.289Z,26.89
2022-08-21T16:48:22.510Z,26.89
2022-08-21T16:50:55.020Z,26.88
2022-08-21T16:53:23.893Z,26.88
2022-08-21T16:55:55.981Z,26.78
2022-08-21T16:58:39.962Z,26.62
2022-08-21T17:01:51.103Z,26.62
2022-08-21T17:04:23.606Z,26.59
2022-08-21T17:07:02.181Z,26.60
2022-08-21T17:09:31.197Z,26.56
2022-08-21T17:11:59.111Z,26.55
2022-08-21T17:14:27.688Z,26.54
2022-08-21T17:17:05.756Z,26.50
2022-08-21T17:19:58.032Z,26.42
2022-08-21T17:22:32.974Z,26.36
2022-08-21T17:25:01.203Z,26.39
2022-08-21T17:27:31.030Z,26.49
2022-08-21T17:30:02.208Z,26.58
2022-08-21T17:32:35.124Z,26.50
2022-08-21T17:35:03.430Z,26.51
2022-08-21T17:37:31.767Z,26.49
2022-08-21T17:40:01.803Z,26.48
2022-08-21T17:42:30.491Z,26.45
2022-08-21T17:45:04.045Z,26.40
2022-08-21T17:47:34.572Z,26.43
2022-08-21T17:50:15.289Z,26.46
2022-08-21T17:52:47.701Z,26.51
2022-08-21T17:55:18.819Z,26.57
2022-08-21T17:57:49.348Z,26.64
2022-08-21T18:00:24.227Z,26.59
2022-08-21T18:03:19.391Z,26.49
2022-08-21T18:06:01.488Z,26.34
2022-08-21T18:08:34.452Z,26.44
2022-08-21T18:11:02.490Z,26.54
2022-08-21T18:13:51.066Z,26.56
2022-08-21T18:16:35.447Z,26.57
2022-08-21T18:19:28.502Z,26.58
2022-08-21T18:21:58.860Z,26.64
2022-08-21T18:24:29.815Z,26.59
2022-08-21T18:27:00.117Z,26.71
2022-08-21T18:29:33.925Z,26.62
2022-08-21T18:32:31.168Z,26.61
2022-08-21T18:35:03.724Z,26.62
2022-08-21T18:37:33.641Z,26.56
2022-08-21T18:40:09.961Z,26.57
2022-08-21T18:42:54.954Z,26.58
2022-08-21T18:45:32.741Z,26.69
2022-08-21T18:48:04.285Z,26.72
2022-08-21T18:50:32.713Z,26.76
2022-08-21T18:53:06.462Z,26.81
2022-08-21T18:56:06.038Z,26.76
2022-08-21T18:58:35.954Z,26.72
2022-08-21T19:01:07.505Z,26.66
2022-08-21T19:03:43.762Z,26.62
2022-08-21T19:06:37.958Z,26.62
2022-08-21T19:09:12.081Z,26.63
2022-08-21T19:11:45.827Z,26.60
2022-08-21T19:14:30.954Z,26.58
2022-08-21T19:16:59.023Z,26.56
2022-08-21T19:19:48.037Z,26.51
2022-08-21T19:23:29.328Z,26.42
2022-08-21T19:26:28.450Z,26.38
2022-08-21T19:29:34.623Z,26.40
2022-08-21T19:32:43.090Z,26.47
2022-08-21T19:35:21.781Z,26.50
2022-08-21T19:38:29.232Z,26.51
2022-08-21T19:41:07.217Z,26.55
2022-08-21T19:44:08.794Z,26.56
2022-08-21T19:47:37.248Z,26.39
2022-08-21T19:50:26.880Z,26.44
2022-08-21T19:53:17.419Z,26.48
2022-08-21T19:55:49.861Z,26.47
2022-08-21T19:58:38.455Z,26.48
2022-08-21T20:01:16.745Z,26.42
2022-08-21T20:03:53.768Z,26.46
2022-08-21T20:09:44.413Z,26.42
2022-08-21T20:12:23.351Z,26.40
2022-08-21T20:14:52.507Z,26.46
2022-08-21T20:17:22.100Z,26.50
2022-08-21T20:20:02.786Z,26.53
2022-08-21T20:22:34.491Z,26.59
2022-08-21T20:25:21.396Z,26.58
2022-08-21T20:27:56.846Z,26.50
2022-08-21T20:30:28.834Z,26.50
2022-08-21T20:33:03.941Z,26.50
2022-08-21T20:35:32.846Z,26.50
2022-08-21T20:38:33.779Z,26.51
2022-08-21T20:41:01.875Z,26.47
2022-08-21T20:43:34.652Z,26.50
2022-08-21T20:46:07.993Z,26.52
2022-08-21T20:51:42.155Z,26.47
2022-08-21T20:54:50.207Z,26.46
2022-08-21T20:57:59.357Z,26.47
2022-08-21T21:00:37.850Z,26.40
2022-08-21T21:06:17.040Z,26.49
2022-08-21T21:08:49.865Z,26.44
2022-08-21T21:11:50.820Z,26.48
2022-08-21T21:18:14.391Z,26.33
2022-08-21T21:21:03.960Z,26.29
2022-08-21T21:23:47.171Z,26.30
2022-08-21T21:26:46.351Z,26.34
2022-08-21T21:33:02.501Z,26.28
2022-08-21T21:35:40.618Z,26.28
2022-08-21T21:38:56.531Z,26.23
2022-08-21T21:41:34.132Z,26.22
2022-08-21T21:44:44.241Z,26.21
2022-08-21T21:47:46.753Z,26.19
2022-08-21T21:50:19.067Z,26.11
2022-08-21T21:53:29.056Z,26.18
2022-08-21T21:56:14.824Z,26.15
2022-08-21T21:59:08.393Z,26.13
2022-08-21T22:02:42.381Z,26.14
2022-08-21T22:06:15.861Z,26.05
2022-08-21T22:09:25.044Z,26.02
2022-08-21T22:12:49.731Z,25.99
2022-08-21T22:15:29.055Z,25.95
2022-08-21T22:18:06.693Z,25.94
2022-08-21T22:21:17.540Z,25.88
2022-08-21T22:24:29.576Z,25.82
2022-08-21T22:27:38.252Z,25.87
2022-08-21T22:31:09.658Z,25.81
2022-08-21T22:34:18.398Z,25.87
2022-08-21T22:36:56.917Z,25.90
2022-08-21T22:43:16.523Z,26.01
2022-08-21T22:46:37.209Z,26.02
2022-08-21T22:49:41.420Z,25.99
2022-08-21T22:56:49.445Z,25.90
2022-08-21T22:59:54.566Z,25.86
2022-08-21T23:03:00.309Z,25.83
2022-08-21T23:05:35.181Z,25.81
2022-08-21T23:08:24.146Z,25.80
2022-08-21T23:11:05.456Z,25.77
2022-08-21T23:13:47.753Z,25.83
2022-08-21T23:17:32.237Z,25.91
2022-08-21T23:23:40.696Z,25.79
2022-08-21T23:26:52.141Z,25.78
2022-08-21T23:30:07.646Z,25.78
2022-08-21T23:33:17.775Z,25.78
2022-08-21T23:36:38.816Z,25.76
2022-08-21T23:39:29.083Z,25.72
2022-08-21T23:42:19.406Z,25.68
2022-08-21T23:45:33.040Z,25.64
2022-08-21T23:48:38.141Z,25.66
2022-08-21T23:51:33.956Z,25.64
2022-08-21T23:54:43.481Z,25.63
2022-08-21T23:57:31.708Z,25.59
